Home > Products > Valid Products > MTR

000
SAUS45 KMSO 081554
MTRP69
METAR KP69 081552Z AUTO 35003KT 01/M01 A3072 RMK AO1 SLP425
T00061011





000
SAUS45 KMSO 081454
MTRP69
METAR KP69 081452Z AUTO 29004KT 01/M01 A3072 RMK AO1 SLP424
T00061011 51000





000
SAUS45 KMSO 081354
MTRP69
METAR KP69 081352Z AUTO 00000KT 01/M01 A3072 RMK AO1 SLP423
T00111006 $





000
SAUS45 KMSO 081254
MTRP69
METAR KP69 081252Z AUTO 00000KT 01/M01 A3072 RMK AO1 SLP423
T00061006 $





000
SAUS45 KMSO 081254
MTRP69
METAR KP69 081252Z AUTO 00000KT 01/M01 A3072 RMK AO1 SLP423
T00061006 $





000
SAUS45 KMSO 081153
MTRP69
METAR KP69 081152Z AUTO 00000KT 01/M01 A3072 RMK AO1 SLP422
T00061006 10028 20006 $





000
SAUS45 KMSO 081153
MTRP69
METAR KP69 081152Z AUTO 00000KT 01/M01 A3072 RMK AO1 SLP422
T00061006 10028 20006 $





000
SAUS45 KMSO 081053
MTRP69
METAR KP69 081052Z AUTO 34003KT 01/M01 A3071 RMK AO1 SLP418
T00061006 $





000
SAUS45 KMSO 081053
MTRP69
METAR KP69 081052Z AUTO 34003KT 01/M01 A3071 RMK AO1 SLP418
T00061006 $





000
SAUS45 KMSO 080954
MTRP69
METAR KP69 080952Z AUTO 00000KT 01/M01 A3071 RMK AO1 SLP414
T00061006 $





000
SAUS45 KMSO 080853
MTRP69
METAR KP69 080852Z AUTO 33005KT 01/01 A3070 RMK AO1 SLP415 T00110006
58002





000
SAUS45 KMSO 080853
MTRP69
METAR KP69 080852Z AUTO 33005KT 01/01 A3070 RMK AO1 SLP415 T00110006
58002





000
SAUS45 KMSO 080754
MTRP69
METAR KP69 080752Z AUTO 33003KT 02/01 A3071 RMK AO1 SLP416 T00170006
400890006





000
SAUS45 KMSO 080654
MTRP69
METAR KP69 080652Z AUTO 35003KT 03/01 A3071 RMK AO1 SLP416 T00280011





000
SAUS45 KMSO 080554
MTRP69
METAR KP69 080552Z AUTO 33003KT 03/01 A3071 RMK AO1 SLP420 T00280011
10050 20022 50006





000
SAUS45 KMSO 080554
MTRP69
METAR KP69 080552Z AUTO 33003KT 03/01 A3071 RMK AO1 SLP420 T00280011
10050 20022 50006





000
SAUS45 KMSO 080454
MTRP69
METAR KP69 080452Z AUTO 35003KT 03/01 A3072 RMK AO1 SLP425 T00280011





000
SAUS45 KMSO 080454
MTRP69
METAR KP69 080452Z AUTO 35003KT 03/01 A3072 RMK AO1 SLP425 T00280011





000
SAUS45 KMSO 080354
MTRP69
METAR KP69 080352Z AUTO 34004KT 02/01 A3070 RMK AO1 SLP419 T00220011





000
SAUS45 KMSO 080254
MTRP69
METAR KP69 080252Z AUTO 00000KT 02/01 A3069 RMK AO1 SLP415 T00220011
53016





000
SAUS45 KMSO 080154
MTRP69
METAR KP69 080152Z AUTO 36003KT 03/01 A3067 RMK AO1 SLP405 T00280011





000
SAUS45 KMSO 080053
MTRP69
METAR KP69 080052Z AUTO 36003KT 04/02 A3065 RMK AO1 SLP397 T00390017





000
SAUS45 KMSO 080053
MTRP69
METAR KP69 080052Z AUTO 36003KT 04/02 A3065 RMK AO1 SLP397 T00390017





000
SAUS45 KMSO 072354
MTRP69
METAR KP69 072352Z AUTO 00000KT 05/02 A3064 RMK AO1 SLP395 T00500022
10089 20022 55001





000
SAUS45 KMSO 072253
MTRP69
METAR KP69 072252Z AUTO 34003KT 06/02 A3063 RMK AO1 SLP389 T00560022





000
SAUS45 KMSO 072253
MTRP69
METAR KP69 072252Z AUTO 34003KT 06/02 A3063 RMK AO1 SLP389 T00560022





000
SAUS45 KMSO 072154
MTRP69
METAR KP69 072152Z AUTO 36003KT 08/02 A3062 RMK AO1 SLP383 T00830017





000
SAUS45 KMSO 072154
MTRP69
METAR KP69 072152Z AUTO 36003KT 08/02 A3062 RMK AO1 SLP383 T00830017





000
SAUS45 KMSO 072054
MTRP69
METAR KP69 072052Z AUTO 35004KT 07/01 A3064 RMK AO1 SLP393 T00670006
58019





000
SAUS45 KMSO 071954
MTRP69
METAR KP69 071952Z AUTO 36004KT 07/M01 A3067 RMK AO1 SLP400
T00721011





000
SAUS45 KMSO 071854
MTRP69
METAR KP69 071852Z AUTO 36003KT 05/M01 A3069 RMK AO1 SLP411
T00501011





000
SAUS45 KMSO 071854
MTRP69
METAR KP69 071852Z AUTO 36003KT 05/M01 A3069 RMK AO1 SLP411
T00501011





000
SAUS45 KMSO 071754
MTRP69
METAR KP69 071752Z AUTO 00000KT 02/M01 A3070 RMK AO1 SLP417
T00171006 10039 20006 51009





000
SAUS45 KMSO 071754
MTRP69
METAR KP69 071752Z AUTO 00000KT 02/M01 A3070 RMK AO1 SLP417
T00171006 10039 20006 51009





000
SAUS45 KMSO 071654
MTRP69
METAR KP69 071652Z AUTO 00000KT 01/M01 A3069 RMK AO1 SLP417
T00061011





000
SAUS45 KMSO 071554
MTRP69
METAR KP69 071552Z AUTO 00000KT 01/M01 A3069 RMK AO1 SLP415
T00061006





000
SAUS45 KMSO 071454
MTRP69
METAR KP69 071452Z AUTO 00000KT 01/M01 A3067 RMK AO1 SLP408
T00061011 53024





000
SAUS45 KMSO 071454
MTRP69
METAR KP69 071452Z AUTO 00000KT 01/M01 A3067 RMK AO1 SLP408
T00061011 53024





000
SAUS45 KMSO 071354
MTRP69
METAR KP69 071352Z AUTO 00000KT 01/M01 A3064 RMK AO1 SLP396
T00111011





000
SAUS45 KMSO 071254
MTRP69
METAR KP69 071252Z AUTO 00000KT 01/M01 A3062 RMK AO1 SLP388
T00111011





000
SAUS45 KMSO 071153
MTRP69
METAR KP69 071152Z AUTO 00000KT 01/M01 A3060 RMK AO1 SLP380 70003
T00111006 10022 20011 53010





000
SAUS45 KMSO 071053
MTRP69
METAR KP69 071052Z AUTO 00000KT 02/M01 A3059 RMK AO1 SLP372
T00171006





000
SAUS45 KMSO 070953
MTRP69
METAR KP69 070952Z AUTO 00000KT 02/M01 A3058 RMK AO1 SLP369
T00171006





000
SAUS45 KMSO 070853
MTRP69
METAR KP69 070852Z AUTO 00000KT 02/00 A3057 RMK AO1 SLP366 T00170000
53021





000
SAUS45 KMSO 070754
MTRP69
METAR KP69 070752Z AUTO 00000KT 02/00 A3054 RMK AO1 SLP358 T00170000
400720017





000
SAUS45 KMSO 070654
MTRP69
METAR KP69 070652Z AUTO 00000KT 02/01 A3052 RMK AO1 SLP352 T00170006





000
SAUS45 KMSO 070654
MTRP69
METAR KP69 070652Z AUTO 00000KT 02/01 A3052 RMK AO1 SLP352 T00170006





000
SAUS45 KMSO 070554
MTRP69
METAR KP69 070552Z AUTO 36003KT 02/01 A3050 RMK AO1 SLP347 T00220006
10050 20017 51013





000
SAUS45 KMSO 070554
MTRP69
METAR KP69 070552Z AUTO 36003KT 02/01 A3050 RMK AO1 SLP347 T00220006
10050 20017 51013





000
SAUS45 KMSO 070454
MTRP69
METAR KP69 070452Z AUTO 00000KT 02/01 A3049 RMK AO1 SLP345 T00170006





000
SAUS45 KMSO 070454
MTRP69
METAR KP69 070452Z AUTO 00000KT 02/01 A3049 RMK AO1 SLP345 T00170006





000
SAUS45 KMSO 070354
MTRP69
METAR KP69 070352Z AUTO 00000KT 02/01 A3047 RMK AO1 SLP339 T00170006





000
SAUS45 KMSO 070253
MTRP69
METAR KP69 070252Z AUTO 00000KT 03/01 A3046 RMK AO1 SLP334 T00280011
51012





000
SAUS45 KMSO 070253
MTRP69
METAR KP69 070252Z AUTO 00000KT 03/01 A3046 RMK AO1 SLP334 T00280011
51012





000
SAUS45 KMSO 070154
MTRP69
METAR KP69 070152Z AUTO 34005KT 03/02 A3045 RMK AO1 SLP330 T00330017





000
SAUS45 KMSO 070154
MTRP69
METAR KP69 070152Z AUTO 34005KT 03/02 A3045 RMK AO1 SLP330 T00330017





000
SAUS45 KMSO 070054
MTRP69
METAR KP69 070052Z AUTO 00000KT 04/03 A3044 RMK AO1 SLP325 T00390028





000
SAUS45 KMSO 070054
MTRP69
METAR KP69 070052Z AUTO 00000KT 04/03 A3044 RMK AO1 SLP325 T00390028





000
SAUS45 KMSO 062354
MTRP69
METAR KP69 062352Z AUTO 00000KT 05/03 A3043 RMK AO1 SLP320 T00500033
10072 20033 53006





000
SAUS45 KMSO 062354
MTRP69
METAR KP69 062352Z AUTO 00000KT 05/03 A3043 RMK AO1 SLP320 T00500033
10072 20033 53006





000
SAUS45 KMSO 062254
MTRP69
METAR KP69 062252Z AUTO 00000KT 07/04 A3041 RMK AO1 SLP312 T00670044





000
SAUS45 KMSO 062154
MTRP69
METAR KP69 062152Z AUTO 00000KT 07/04 A3040 RMK AO1 SLP308 T00670039





000
SAUS45 KMSO 062154
MTRP69
METAR KP69 062152Z AUTO 00000KT 07/04 A3040 RMK AO1 SLP308 T00670039





000
SAUS45 KMSO 062054
MTRP69
METAR KP69 062052Z AUTO 00000KT 07/03 A3041 RMK AO1 SLP310 T00720033
58010





000
SAUS45 KMSO 061953
MTRP69
METAR KP69 061952Z AUTO 00000KT 06/03 A3043 RMK AO1 SLP320 T00560033





000
SAUS45 KMSO 061854
MTRP69
METAR KP69 061852Z AUTO 00000KT 04/03 A3045 RMK AO1 SLP328 T00440028





000
SAUS45 KMSO 061854
MTRP69
METAR KP69 061852Z AUTO 00000KT 04/03 A3045 RMK AO1 SLP328 T00440028





000
SAUS45 KMSO 061754
MTRP69
METAR KP69 061752Z AUTO 00000KT 03/02 A3044 RMK AO1 SLP325 60003
T00330022 10033 20028 51027





000
SAUS45 KMSO 061754
MTRP69
METAR KP69 061752Z AUTO 00000KT 03/02 A3044 RMK AO1 SLP325 60003
T00330022 10033 20028 51027





000
SAUS45 KMSO 061654
MTRP69
METAR KP69 061652Z AUTO 00000KT 03/02 A3044 RMK AO1 SLP325 T00280017





000
SAUS45 KMSO 061654
MTRP69
METAR KP69 061652Z AUTO 00000KT 03/02 A3044 RMK AO1 SLP325 T00280017





000
SAUS45 KMSO 061554
MTRP69
METAR KP69 061552Z AUTO 00000KT 03/02 A3040 RMK AO1 SLP313 P0002
T00280017





000
SAUS45 KMSO 061454
MTRP69
METAR KP69 061452Z AUTO 00000KT 03/02 A3036 RMK AO1 SLP297 P0001
60001 T00280017 51032





000
SAUS45 KMSO 061354
MTRP69
METAR KP69 061352Z AUTO 00000KT 03/02 A3033 RMK AO1 SLP289 T00280017





000
SAUS45 KMSO 061254
MTRP69
METAR KP69 061252Z AUTO 00000KT 03/01 A3029 RMK AO1 SLP273 T00280011





000
SAUS45 KMSO 061153
MTRP69
METAR KP69 061152Z AUTO 00000KT 03/02 A3026 RMK AO1 SLP263 60001
70001 T00280017 10033 20022 55011





000
SAUS45 KMSO 061153
MTRP69
METAR KP69 061152Z AUTO 00000KT 03/02 A3026 RMK AO1 SLP263 60001
70001 T00280017 10033 20022 55011





000
SAUS45 KMSO 061053
MTRP69
METAR KP69 061052Z AUTO 32003KT 03/01 A3025 RMK AO1 SLP261 T00280011





000
SAUS45 KMSO 061053
MTRP69
METAR KP69 061052Z AUTO 32003KT 03/01 A3025 RMK AO1 SLP261 T00280011





000
SAUS45 KMSO 060953
MTRP69
METAR KP69 060952Z AUTO 00000KT 03/02 A3028 RMK AO1 SLP267 T00280017





000
SAUS45 KMSO 060853
MTRP69
METAR KP69 060852Z AUTO 00000KT 03/02 A3029 RMK AO1 SLP269 P0001
60001 T00280017 58003





000
SAUS45 KMSO 060853
MTRP69
METAR KP69 060852Z AUTO 00000KT 03/02 A3029 RMK AO1 SLP269 P0001
60001 T00280017 58003





000
SAUS45 KMSO 060754
MTRP69
METAR KP69 060752Z AUTO 00000KT 03/02 A3031 RMK AO1 SLP276 T00280017
401000006





000
SAUS45 KMSO 060654
MTRP69
METAR KP69 060652Z AUTO 33003KT 03/02 A3028 RMK AO1 SLP271 T00280017





000
SAUS45 KMSO 060654
MTRP69
METAR KP69 060652Z AUTO 33003KT 03/02 A3028 RMK AO1 SLP271 T00280017





000
SAUS45 KMSO 060554
MTRP69
METAR KP69 060552Z AUTO 31004KT 03/02 A3030 RMK AO1 SLP279 T00280017
10039 20028 56009





000
SAUS45 KMSO 060554
MTRP69
METAR KP69 060552Z AUTO 31004KT 03/02 A3030 RMK AO1 SLP279 T00280017
10039 20028 56009





000
SAUS45 KMSO 060454
MTRP69
METAR KP69 060452Z AUTO 34004KT 03/02 A3031 RMK AO1 SLP282 T00280017





000
SAUS45 KMSO 060354
MTRP69
METAR KP69 060352Z AUTO 34004KT 03/02 A3030 RMK AO1 SLP278 T00330017





000
SAUS45 KMSO 060354
MTRP69
METAR KP69 060352Z AUTO 34004KT 03/02 A3030 RMK AO1 SLP278 T00330017





000
SAUS45 KMSO 060253
MTRP69
METAR KP69 060252Z AUTO 33004KT 03/02 A3033 RMK AO1 SLP291 T00280017
58011





000
SAUS45 KMSO 060253
MTRP69
METAR KP69 060252Z AUTO 33004KT 03/02 A3033 RMK AO1 SLP291 T00280017
58011





000
SAUS45 KMSO 060154
MTRP69
METAR KP69 060152Z AUTO 36003KT 03/02 A3035 RMK AO1 SLP296 T00280017





000
SAUS45 KMSO 060154
MTRP69
METAR KP69 060152Z AUTO 36003KT 03/02 A3035 RMK AO1 SLP296 T00280017





000
SAUS45 KMSO 060054
MTRP69
METAR KP69 060052Z AUTO 01004KT 03/02 A3036 RMK AO1 SLP300 T00330017





000
SAUS45 KMSO 060054
MTRP69
METAR KP69 060052Z AUTO 01004KT 03/02 A3036 RMK AO1 SLP300 T00330017





000
SAUS45 KMSO 052354
MTRP69
METAR KP69 052352Z AUTO 36004KT 04/02 A3036 RMK AO1 SLP300 T00390022
10100 20022 56015





000
SAUS45 KMSO 052354
MTRP69
METAR KP69 052352Z AUTO 36004KT 04/02 A3036 RMK AO1 SLP300 T00390022
10100 20022 56015





000
SAUS45 KMSO 052254
MTRP69
METAR KP69 052252Z AUTO 01003KT 05/03 A3037 RMK AO1 SLP302 T00500028





000
SAUS45 KMSO 052254
MTRP69
METAR KP69 052252Z AUTO 01003KT 05/03 A3037 RMK AO1 SLP302 T00500028





000
SAUS45 KMSO 052154
MTRP69
METAR KP69 052152Z AUTO VRB04KT 08/03 A3038 RMK AO1 SLP302 T00830033





000
SAUS45 KMSO 052058 COR
MTRP69
METAR KP69 052052Z AUTO 01005KT 08/03 A3041 RMK AO1 SLP312 T00830028
58033





000
SAUS45 KMSO 052054
MTRP69
METAR KP69 052052Z AUTO 01005KT 08/03 A3041 RMK AO1 SLP312 T00830028
58033





000
SAUS45 KMSO 052054
MTRP69
METAR KP69 052052Z AUTO 01005KT 08/03 A3041 RMK AO1 SLP312 T00830028
58033





000
SAUS45 KMSO 051954
MTRP69
METAR KP69 051952Z AUTO 00000KT 08/03 A3045 RMK AO1 SLP326 T00830028





000
SAUS45 KMSO 051854
MTRP69
METAR KP69 051852Z AUTO 00000KT 04/02 A3048 RMK AO1 SLP341 T00440017





000
SAUS45 KMSO 051854
MTRP69
METAR KP69 051852Z AUTO 00000KT 04/02 A3048 RMK AO1 SLP341 T00440017





000
SAUS45 KMSO 051753
MTRP69
METAR KP69 051752Z AUTO 35005KT 02/01 A3051 RMK AO1 SLP352 T00220011
10028 20006 56010





000
SAUS45 KMSO 051753
MTRP69
METAR KP69 051752Z AUTO 35005KT 02/01 A3051 RMK AO1 SLP352 T00220011
10028 20006 56010





000
SAUS45 KMSO 051653
MTRP69
METAR KP69 051652Z AUTO 35003KT 02/01 A3051 RMK AO1 SLP355 T00170006





    US Dept of Commerce
    National Oceanic and Atmospheric Administration
    National Weather Service
    1325 East West Highway
    Silver Spring, MD 20910
    Page Author: NWS Internet Services Team
Disclaimer
Information Quality
Credits
Glossary
Privacy Policy
Freedom of Information Act (FOIA)
About Us
Career Opportunities